createdAt,value
2022-09-06T00:00:58.438Z,10.20
2022-09-06T00:03:27.673Z,10.20
2022-09-06T00:05:54.697Z,10.20
2022-09-06T00:08:21.539Z,10.20
2022-09-06T00:10:48.327Z,10.20
2022-09-06T00:13:15.058Z,10.20
2022-09-06T00:15:41.859Z,10.20
2022-09-06T00:18:08.734Z,10.20
2022-09-06T00:20:41.324Z,10.10
2022-09-06T00:23:08.799Z,10.00
2022-09-06T00:25:36.166Z,10.00
2022-09-06T00:28:05.690Z,10.00
2022-09-06T00:30:33.564Z,10.00
2022-09-06T00:33:00.483Z,9.90
2022-09-06T00:35:27.951Z,9.90
2022-09-06T00:38:02.275Z,9.90
2022-09-06T00:40:30.612Z,9.90
2022-09-06T00:42:58.236Z,9.90
2022-09-06T00:45:27.577Z,9.80
2022-09-06T00:47:54.964Z,9.80
2022-09-06T00:50:22.079Z,9.90
2022-09-06T00:52:52.700Z,9.80
2022-09-06T00:55:21.386Z,9.90
2022-09-06T00:57:51.377Z,9.80
2022-09-06T01:00:20.158Z,9.80
2022-09-06T01:02:48.458Z,9.70
2022-09-06T01:05:16.128Z,9.60
2022-09-06T01:07:59.731Z,9.60
2022-09-06T01:10:38.722Z,9.50
2022-09-06T01:13:50.298Z,9.60
2022-09-06T01:16:54.392Z,9.60
2022-09-06T01:20:10.670Z,9.60
2022-09-06T01:23:04.728Z,9.50
2022-09-06T01:25:56.070Z,9.50
2022-09-06T01:28:45.218Z,9.50
2022-09-06T01:31:35.349Z,9.40
2022-09-06T01:34:07.945Z,9.40
2022-09-06T01:37:10.285Z,9.40
2022-09-06T01:39:39.427Z,9.40
2022-09-06T01:42:14.206Z,9.50
2022-09-06T01:44:45.507Z,9.40
2022-09-06T01:47:42.057Z,9.50
2022-09-06T01:50:39.871Z,9.50
2022-09-06T01:53:54.832Z,9.60
2022-09-06T01:56:30.358Z,9.50
2022-09-06T01:59:29.970Z,9.50
2022-09-06T02:02:10.952Z,9.50
2022-09-06T02:05:01.871Z,9.50
2022-09-06T02:07:31.435Z,9.50
2022-09-06T02:10:06.952Z,9.50
2022-09-06T02:12:39.089Z,9.50
2022-09-06T02:15:15.020Z,9.40
2022-09-06T02:17:52.400Z,9.40
2022-09-06T02:20:31.130Z,9.30
2022-09-06T02:23:01.937Z,9.40
2022-09-06T02:25:35.572Z,9.40
2022-09-06T02:28:02.823Z,9.40
2022-09-06T02:30:30.066Z,9.40
2022-09-06T02:33:01.912Z,9.30
2022-09-06T02:35:29.175Z,9.40
2022-09-06T02:37:56.465Z,9.40
2022-09-06T02:40:23.522Z,9.50
2022-09-06T02:42:50.245Z,9.40
2022-09-06T02:45:16.967Z,9.40
2022-09-06T02:47:44.063Z,9.30
2022-09-06T02:50:10.800Z,9.20
2022-09-06T02:52:37.505Z,9.20
2022-09-06T02:55:04.632Z,9.20
2022-09-06T02:57:31.323Z,9.20
2022-09-06T02:59:58.075Z,9.30
2022-09-06T03:02:25.046Z,9.30
2022-09-06T03:04:51.839Z,9.20
2022-09-06T03:07:18.846Z,9.20
2022-09-06T03:09:45.550Z,9.10
2022-09-06T03:12:12.332Z,9.10
2022-09-06T03:14:41.201Z,9.10
2022-09-06T03:17:08.009Z,9.10
2022-09-06T03:19:34.736Z,9.20
2022-09-06T03:22:01.561Z,9.20
2022-09-06T03:24:28.282Z,9.10
2022-09-06T03:26:54.965Z,9.10
2022-09-06T03:29:21.691Z,9.00
2022-09-06T03:31:48.373Z,9.00
2022-09-06T03:34:15.118Z,9.00
2022-09-06T03:36:41.835Z,9.10
2022-09-06T03:39:08.555Z,9.10
2022-09-06T03:41:35.398Z,9.20
2022-09-06T03:44:02.348Z,9.10
2022-09-06T03:46:30.790Z,9.20
2022-09-06T03:48:59.152Z,9.10
2022-09-06T03:51:25.998Z,9.00
2022-09-06T03:53:52.795Z,9.10
2022-09-06T03:56:20.054Z,8.90
2022-09-06T03:58:46.866Z,9.00
2022-09-06T04:01:14.097Z,8.90
2022-09-06T04:03:41.461Z,9.00
2022-09-06T04:06:08.887Z,9.00
2022-09-06T04:08:36.293Z,9.00
2022-09-06T04:11:03.410Z,9.00
2022-09-06T04:13:31.474Z,8.90
2022-09-06T04:15:58.768Z,9.00
2022-09-06T04:18:25.952Z,8.90
2022-09-06T04:20:55.921Z,9.00
2022-09-06T04:23:25.476Z,9.00
2022-09-06T04:25:54.556Z,9.00
2022-09-06T04:28:22.543Z,9.00
2022-09-06T04:30:54.119Z,9.00
2022-09-06T04:33:21.363Z,9.10
2022-09-06T04:35:51.795Z,9.10
2022-09-06T04:38:18.423Z,9.20
2022-09-06T04:40:45.176Z,9.20
2022-09-06T04:43:11.910Z,9.30
2022-09-06T04:45:38.810Z,9.40
2022-09-06T04:48:05.689Z,9.40
2022-09-06T04:50:32.566Z,9.50
2022-09-06T04:52:59.293Z,9.60
2022-09-06T04:55:26.584Z,9.70
2022-09-06T04:57:53.311Z,9.70
2022-09-06T05:00:20.131Z,9.80
2022-09-06T05:02:46.852Z,9.90
2022-09-06T05:05:13.707Z,9.90
2022-09-06T05:07:40.396Z,10.00
2022-09-06T05:10:07.301Z,10.10
2022-09-06T05:12:33.979Z,10.20
2022-09-06T05:15:00.716Z,10.30
2022-09-06T05:17:27.489Z,10.40
2022-09-06T05:19:54.210Z,10.40
2022-09-06T05:22:21.007Z,10.50
2022-09-06T05:24:47.798Z,10.60
2022-09-06T05:27:14.608Z,10.70
2022-09-06T05:29:41.650Z,10.80
2022-09-06T05:32:08.468Z,10.90
2022-09-06T05:34:35.239Z,10.90
2022-09-06T05:37:02.005Z,11.00
2022-09-06T05:39:28.754Z,11.10
2022-09-06T05:41:55.492Z,11.20
2022-09-06T05:44:22.172Z,11.20
2022-09-06T05:46:48.981Z,11.30
2022-09-06T05:49:15.746Z,11.40
2022-09-06T05:51:42.622Z,11.50
2022-09-06T05:54:11.945Z,11.60
2022-09-06T05:56:38.667Z,11.70
2022-09-06T05:59:06.074Z,11.80
2022-09-06T06:01:32.918Z,12.00
2022-09-06T06:04:04.673Z,12.10
2022-09-06T06:06:34.026Z,12.20
2022-09-06T06:09:01.032Z,12.30
2022-09-06T06:11:28.478Z,12.50
2022-09-06T06:13:55.402Z,12.60
2022-09-06T06:16:22.880Z,12.70
2022-09-06T06:18:52.550Z,12.90
2022-09-06T06:21:26.533Z,13.00
2022-09-06T06:23:58.442Z,13.10
2022-09-06T06:26:26.600Z,13.20
2022-09-06T06:28:53.643Z,13.40
2022-09-06T06:31:22.451Z,13.40
2022-09-06T06:33:49.640Z,13.60
2022-09-06T06:36:16.395Z,13.70
2022-09-06T06:38:45.250Z,13.90
2022-09-06T06:41:14.469Z,13.90
2022-09-06T06:43:41.613Z,14.00
2022-09-06T06:46:10.733Z,14.10
2022-09-06T06:48:40.613Z,14.10
2022-09-06T06:51:08.535Z,14.20
2022-09-06T06:53:35.921Z,14.20
2022-09-06T06:56:16.718Z,14.30
2022-09-06T06:58:44.580Z,14.40
2022-09-06T07:01:12.118Z,14.40
2022-09-06T07:03:39.345Z,14.50
2022-09-06T07:08:36.135Z,14.60
2022-09-06T07:11:04.150Z,14.60
2022-09-06T07:13:31.399Z,14.70
2022-09-06T07:16:18.192Z,14.80
2022-09-06T07:18:45.965Z,14.90
2022-09-06T07:24:08.529Z,15.00
2022-09-06T07:26:37.558Z,15.10
2022-09-06T07:29:05.592Z,15.20
2022-09-06T07:34:20.523Z,15.40
2022-09-06T07:36:48.290Z,15.40
2022-09-06T07:39:15.048Z,15.50
2022-09-06T07:41:42.913Z,15.60
2022-09-06T07:44:09.753Z,15.80
2022-09-06T07:46:36.657Z,15.80
2022-09-06T07:49:07.111Z,15.90
2022-09-06T07:51:33.872Z,16.00
2022-09-06T07:54:34.682Z,16.10
2022-09-06T07:56:47.752Z,16.10
2022-09-06T07:59:14.831Z,16.10
2022-09-06T08:01:42.460Z,16.20
2022-09-06T08:04:15.612Z,16.20
2022-09-06T08:09:35.130Z,16.40
2022-09-06T08:12:07.399Z,16.60
2022-09-06T08:14:35.139Z,16.60
2022-09-06T08:17:02.989Z,16.60
2022-09-06T08:19:29.857Z,16.70
2022-09-06T08:21:56.754Z,16.70
2022-09-06T08:24:23.726Z,16.80
2022-09-06T08:26:50.489Z,17.00
2022-09-06T08:29:17.416Z,17.10
2022-09-06T08:31:45.300Z,17.20
2022-09-06T08:34:12.885Z,17.20
2022-09-06T08:36:40.244Z,17.10
2022-09-06T08:39:11.903Z,17.10
2022-09-06T08:42:02.984Z,17.20
2022-09-06T08:47:22.652Z,17.20
2022-09-06T08:50:04.115Z,17.40
2022-09-06T08:53:17.331Z,17.60
2022-09-06T08:56:13.459Z,17.50
2022-09-06T08:59:06.604Z,17.40
2022-09-06T09:01:59.079Z,17.40
2022-09-06T09:04:27.926Z,17.50
2022-09-06T09:07:00.432Z,17.50
2022-09-06T09:09:31.408Z,17.70
2022-09-06T09:12:01.007Z,18.00
2022-09-06T09:14:29.140Z,18.00
2022-09-06T09:17:05.351Z,18.10
2022-09-06T09:19:36.704Z,18.20
2022-09-06T09:22:04.076Z,18.40
2022-09-06T09:24:32.315Z,18.30
2022-09-06T09:27:13.405Z,18.40
2022-09-06T09:32:44.977Z,18.20
2022-09-06T09:35:41.086Z,18.20
2022-09-06T09:38:13.247Z,18.20
2022-09-06T09:41:02.885Z,18.40
2022-09-06T09:43:41.056Z,18.50
2022-09-06T09:46:10.925Z,18.50
2022-09-06T09:48:38.388Z,18.50
2022-09-06T09:51:26.589Z,18.50
2022-09-06T09:53:59.760Z,18.50
2022-09-06T09:56:52.909Z,18.50
2022-09-06T09:59:21.452Z,18.80
2022-09-06T10:01:48.675Z,19.10
2022-09-06T10:04:44.247Z,19.80
2022-09-06T10:07:20.511Z,20.30
2022-09-06T10:09:50.110Z,20.80
2022-09-06T10:12:41.207Z,21.10
2022-09-06T10:15:10.937Z,21.20
2022-09-06T10:17:51.486Z,21.20
2022-09-06T10:20:19.031Z,21.30
2022-09-06T10:22:57.526Z,21.20
2022-09-06T10:25:49.210Z,20.90
2022-09-06T10:28:41.895Z,20.80
2022-09-06T10:31:27.398Z,20.90
2022-09-06T10:33:59.856Z,21.00
2022-09-06T10:36:30.332Z,20.70
2022-09-06T10:39:19.078Z,21.10
2022-09-06T10:42:21.316Z,20.80
2022-09-06T10:44:58.746Z,20.80
2022-09-06T10:47:37.734Z,20.80
2022-09-06T10:50:08.879Z,20.60
2022-09-06T10:52:42.426Z,20.40
2022-09-06T10:55:14.073Z,20.40
2022-09-06T11:00:47.341Z,20.20
2022-09-06T11:06:24.298Z,20.10
2022-09-06T11:09:26.101Z,20.10
2022-09-06T11:12:15.896Z,20.10
2022-09-06T11:14:42.834Z,20.00
2022-09-06T11:17:22.309Z,20.10
2022-09-06T11:19:56.799Z,19.90
2022-09-06T11:22:55.928Z,19.80
2022-09-06T11:25:29.236Z,19.70
2022-09-06T11:27:59.930Z,19.60
2022-09-06T11:30:29.821Z,19.60
2022-09-06T11:33:24.250Z,19.60
2022-09-06T11:35:51.645Z,19.60
2022-09-06T11:38:26.940Z,19.60
2022-09-06T11:41:00.862Z,19.70
2022-09-06T11:43:48.238Z,19.70
2022-09-06T11:46:33.527Z,19.70
2022-09-06T11:49:20.899Z,19.50
2022-09-06T11:51:47.657Z,19.50
2022-09-06T11:54:21.914Z,19.50
2022-09-06T11:56:59.826Z,19.50
2022-09-06T11:59:54.426Z,19.40
2022-09-06T12:02:36.693Z,19.40
2022-09-06T12:05:09.696Z,19.40
2022-09-06T12:08:14.181Z,19.40
2022-09-06T12:10:40.907Z,19.40
2022-09-06T12:13:33.600Z,19.50
2022-09-06T12:16:00.912Z,19.60
2022-09-06T12:18:49.424Z,19.70
2022-09-06T12:21:36.561Z,19.70
2022-09-06T12:24:05.391Z,19.70
2022-09-06T12:26:55.650Z,19.70
2022-09-06T12:29:25.870Z,19.90
2022-09-06T12:31:55.153Z,19.80
2022-09-06T12:34:25.400Z,19.90
2022-09-06T12:36:56.487Z,20.00
2022-09-06T12:39:23.915Z,20.10
2022-09-06T12:42:12.327Z,20.00
2022-09-06T12:44:43.298Z,20.10
2022-09-06T12:47:25.400Z,20.10
2022-09-06T12:50:17.951Z,20.00
2022-09-06T12:52:46.284Z,20.10
2022-09-06T12:55:26.047Z,20.00
2022-09-06T12:57:58.134Z,20.10
2022-09-06T13:00:27.670Z,20.00
2022-09-06T13:03:08.432Z,20.10
2022-09-06T13:05:40.049Z,20.00
2022-09-06T13:08:22.870Z,19.80
2022-09-06T13:10:49.920Z,20.00
2022-09-06T13:13:23.356Z,19.90
2022-09-06T13:15:50.467Z,19.90
2022-09-06T13:18:23.745Z,19.90
2022-09-06T13:21:11.633Z,19.80
2022-09-06T13:23:51.409Z,19.70
2022-09-06T13:26:38.769Z,19.80
2022-09-06T13:29:17.450Z,19.60
2022-09-06T13:31:46.528Z,19.60
2022-09-06T13:34:27.671Z,19.50
2022-09-06T13:37:14.781Z,19.40
2022-09-06T13:39:46.332Z,19.40
2022-09-06T13:42:29.601Z,19.40
2022-09-06T13:45:01.786Z,19.40
2022-09-06T13:47:29.949Z,19.50
2022-09-06T13:49:56.727Z,19.40
2022-09-06T13:52:23.661Z,19.40
2022-09-06T13:54:50.462Z,19.40
2022-09-06T13:57:22.220Z,19.30
2022-09-06T13:59:50.907Z,19.30
2022-09-06T14:02:19.832Z,19.30
2022-09-06T14:04:46.897Z,19.30
2022-09-06T14:07:13.649Z,19.20
2022-09-06T14:09:40.396Z,19.20
2022-09-06T14:12:07.177Z,19.20
2022-09-06T14:14:34.591Z,19.20
2022-09-06T14:17:01.331Z,19.20
2022-09-06T14:19:28.831Z,19.20
2022-09-06T14:21:55.854Z,19.30
2022-09-06T14:24:22.817Z,19.30
2022-09-06T14:26:49.549Z,19.30
2022-09-06T14:29:16.575Z,19.30
2022-09-06T14:31:43.289Z,19.20
2022-09-06T14:34:10.028Z,19.20
2022-09-06T14:36:36.741Z,19.20
2022-09-06T14:39:04.193Z,19.30
2022-09-06T14:41:30.940Z,19.30
2022-09-06T14:43:58.995Z,19.30
2022-09-06T14:46:27.622Z,19.20
2022-09-06T14:49:00.108Z,19.20
2022-09-06T14:51:27.019Z,19.10
2022-09-06T14:53:57.495Z,19.00
2022-09-06T14:56:24.925Z,18.90
2022-09-06T14:58:57.435Z,18.90
2022-09-06T15:01:37.117Z,18.90
2022-09-06T15:04:06.722Z,18.80
2022-09-06T15:06:36.773Z,18.80
2022-09-06T15:09:04.582Z,18.70
2022-09-06T15:11:48.950Z,18.70
2022-09-06T15:14:22.506Z,18.60
2022-09-06T15:16:55.306Z,18.60
2022-09-06T15:19:24.390Z,18.60
2022-09-06T15:21:51.473Z,18.50
2022-09-06T15:24:18.293Z,18.50
2022-09-06T15:26:45.110Z,18.40
2022-09-06T15:29:13.266Z,18.40
2022-09-06T15:31:40.462Z,18.40
2022-09-06T15:34:07.997Z,18.20
2022-09-06T15:36:36.247Z,18.20
2022-09-06T15:39:04.674Z,18.10
2022-09-06T15:41:33.830Z,18.00
2022-09-06T15:44:03.170Z,18.00
2022-09-06T15:46:50.481Z,18.00
2022-09-06T15:49:28.322Z,17.90
2022-09-06T15:52:00.853Z,17.90
2022-09-06T15:54:47.317Z,17.90
2022-09-06T15:57:16.288Z,17.80
2022-09-06T15:59:43.546Z,17.70
2022-09-06T16:02:10.566Z,17.70
2022-09-06T16:04:37.343Z,17.70
2022-09-06T16:07:04.170Z,17.70
2022-09-06T16:09:31.772Z,17.60
2022-09-06T16:11:58.473Z,17.50
2022-09-06T16:14:25.341Z,17.50
2022-09-06T16:16:54.067Z,17.40
2022-09-06T16:19:20.897Z,17.40
2022-09-06T16:21:47.596Z,17.30
2022-09-06T16:24:14.766Z,17.30
2022-09-06T16:26:43.956Z,17.30
2022-09-06T16:29:12.831Z,17.30
2022-09-06T16:31:40.739Z,17.30
2022-09-06T16:34:09.021Z,17.30
2022-09-06T16:36:35.880Z,17.20
2022-09-06T16:39:02.752Z,17.20
2022-09-06T16:41:42.920Z,17.10
2022-09-06T16:44:11.441Z,17.10
2022-09-06T16:46:40.326Z,17.00
2022-09-06T16:49:07.193Z,17.00
2022-09-06T16:51:33.991Z,16.90
2022-09-06T16:54:01.472Z,16.80
2022-09-06T16:56:34.974Z,16.70
2022-09-06T16:59:04.521Z,16.70
2022-09-06T17:01:32.568Z,16.60
2022-09-06T17:04:02.364Z,16.60
2022-09-06T17:06:30.256Z,16.60
2022-09-06T17:09:01.053Z,16.50
2022-09-06T17:11:29.609Z,16.50
2022-09-06T17:13:57.234Z,16.40
2022-09-06T17:16:44.065Z,16.30
2022-09-06T17:19:13.555Z,16.20
2022-09-06T17:21:40.821Z,16.20
2022-09-06T17:24:09.235Z,16.00
2022-09-06T17:26:38.403Z,16.00
2022-09-06T17:29:06.038Z,16.00
2022-09-06T17:31:33.453Z,15.90
2022-09-06T17:34:00.303Z,15.80
2022-09-06T17:36:32.723Z,15.80
2022-09-06T17:39:02.041Z,15.80
2022-09-06T17:41:34.334Z,15.80
2022-09-06T17:44:01.076Z,15.70
2022-09-06T17:46:29.034Z,15.70
2022-09-06T17:48:56.954Z,15.60
2022-09-06T17:51:25.421Z,15.50
2022-09-06T17:53:52.808Z,15.40
2022-09-06T17:56:20.840Z,15.40
2022-09-06T17:59:01.109Z,15.20
2022-09-06T18:01:31.288Z,15.10
2022-09-06T18:03:59.325Z,15.10
2022-09-06T18:06:28.147Z,15.10
2022-09-06T18:08:56.706Z,15.00
2022-09-06T18:11:29.682Z,14.90
2022-09-06T18:13:59.325Z,14.90
2022-09-06T18:16:27.892Z,14.80
2022-09-06T18:18:59.889Z,14.70
2022-09-06T18:21:28.714Z,14.70
2022-09-06T18:23:56.203Z,14.60
2022-09-06T18:26:23.710Z,14.60
2022-09-06T18:28:50.968Z,14.50
2022-09-06T18:31:19.343Z,14.40
2022-09-06T18:33:46.503Z,14.30
2022-09-06T18:36:15.542Z,14.30
2022-09-06T18:38:43.055Z,14.20
2022-09-06T18:41:34.700Z,14.20
2022-09-06T18:44:03.279Z,14.10
2022-09-06T18:46:31.849Z,14.10
2022-09-06T18:48:59.451Z,14.00
2022-09-06T18:51:27.210Z,13.90
2022-09-06T18:53:56.677Z,13.80
2022-09-06T18:56:24.046Z,13.70
2022-09-06T18:58:55.495Z,13.70
2022-09-06T19:01:22.561Z,13.60
2022-09-06T19:03:49.401Z,13.50
2022-09-06T19:06:18.845Z,13.50
2022-09-06T19:08:46.939Z,13.40
2022-09-06T19:11:17.017Z,13.40
2022-09-06T19:13:45.045Z,13.40
2022-09-06T19:16:13.816Z,13.30
2022-09-06T19:18:41.467Z,13.10
2022-09-06T19:21:09.365Z,13.10
2022-09-06T19:23:41.005Z,13.10
2022-09-06T19:26:19.635Z,13.00
2022-09-06T19:28:51.928Z,13.00
2022-09-06T19:31:19.524Z,13.00
2022-09-06T19:33:47.954Z,12.90
2022-09-06T19:36:17.929Z,12.90
2022-09-06T19:41:38.015Z,12.80
2022-09-06T19:44:07.875Z,12.70
2022-09-06T19:46:35.282Z,12.60
2022-09-06T19:49:02.283Z,12.60
2022-09-06T19:51:29.564Z,12.60
2022-09-06T19:54:00.404Z,12.50
2022-09-06T19:56:33.788Z,12.50
2022-09-06T19:59:03.361Z,12.50
2022-09-06T20:01:32.971Z,12.50
2022-09-06T20:04:02.668Z,12.50
2022-09-06T20:06:30.217Z,12.50
2022-09-06T20:08:59.278Z,12.50
2022-09-06T20:11:29.199Z,12.50
2022-09-06T20:13:56.193Z,12.50
2022-09-06T20:16:24.944Z,12.50
2022-09-06T20:18:52.419Z,12.50
2022-09-06T20:21:19.136Z,12.50
2022-09-06T20:23:50.747Z,12.60
2022-09-06T20:26:18.137Z,12.60
2022-09-06T20:28:45.430Z,12.60
2022-09-06T20:31:16.348Z,12.60
2022-09-06T20:33:47.148Z,12.60
2022-09-06T20:36:17.031Z,12.60
2022-09-06T20:38:44.852Z,12.60
2022-09-06T20:41:17.480Z,12.60
2022-09-06T20:43:45.218Z,12.50
2022-09-06T20:46:14.580Z,12.40
2022-09-06T20:48:44.905Z,12.30
2022-09-06T20:51:15.570Z,12.30
2022-09-06T20:53:42.388Z,12.20
2022-09-06T20:56:14.467Z,12.30
2022-09-06T20:58:41.580Z,12.20
2022-09-06T21:01:16.688Z,12.10
2022-09-06T21:03:43.448Z,12.00
2022-09-06T21:06:12.336Z,12.00
2022-09-06T21:08:42.848Z,11.90
2022-09-06T21:11:10.451Z,11.80
2022-09-06T21:13:37.592Z,11.80
2022-09-06T21:16:06.106Z,11.80
2022-09-06T21:18:34.013Z,11.80
2022-09-06T21:21:03.213Z,11.80
2022-09-06T21:23:32.069Z,11.70
2022-09-06T21:26:07.189Z,11.60
2022-09-06T21:28:37.153Z,11.60
2022-09-06T21:31:09.667Z,11.60
2022-09-06T21:33:37.853Z,11.50
2022-09-06T21:36:09.312Z,11.50
2022-09-06T21:38:40.928Z,11.50
2022-09-06T21:41:08.956Z,11.50
2022-09-06T21:43:35.915Z,11.50
2022-09-06T21:46:04.677Z,11.40
2022-09-06T21:48:31.773Z,11.40
2022-09-06T21:50:58.566Z,11.40
2022-09-06T21:53:27.116Z,11.40
2022-09-06T21:56:02.904Z,11.40
2022-09-06T21:58:30.283Z,11.40
2022-09-06T22:00:59.244Z,11.50
2022-09-06T22:03:30.389Z,11.50
2022-09-06T22:05:57.263Z,11.40
2022-09-06T22:08:25.397Z,11.30
2022-09-06T22:10:53.561Z,11.20
2022-09-06T22:13:21.681Z,11.10
2022-09-06T22:15:49.640Z,11.10
2022-09-06T22:18:16.348Z,11.10
2022-09-06T22:20:44.336Z,11.00
2022-09-06T22:23:12.520Z,11.10
2022-09-06T22:25:39.175Z,11.10
2022-09-06T22:28:07.725Z,11.00
2022-09-06T22:30:34.737Z,11.00
2022-09-06T22:33:01.807Z,11.00
2022-09-06T22:35:28.533Z,11.10
2022-09-06T22:37:55.237Z,11.10
2022-09-06T22:40:21.904Z,11.10
2022-09-06T22:42:49.335Z,11.20
2022-09-06T22:45:16.397Z,11.10
2022-09-06T22:47:43.150Z,11.20
2022-09-06T22:50:10.517Z,11.20
2022-09-06T22:52:37.249Z,11.20
2022-09-06T22:55:05.944Z,11.20
2022-09-06T22:57:33.767Z,11.20
2022-09-06T23:00:00.496Z,11.20
2022-09-06T23:02:27.216Z,11.20
2022-09-06T23:04:58.125Z,11.20
2022-09-06T23:07:25.330Z,11.20
2022-09-06T23:09:52.764Z,11.10
2022-09-06T23:12:19.518Z,11.10
2022-09-06T23:14:46.168Z,11.20
2022-09-06T23:17:14.718Z,11.10
2022-09-06T23:19:41.533Z,11.00
2022-09-06T23:22:08.213Z,11.00
2022-09-06T23:24:35.013Z,11.00
2022-09-06T23:27:04.477Z,10.90
2022-09-06T23:29:31.768Z,10.90
2022-09-06T23:31:58.513Z,10.90
2022-09-06T23:34:25.251Z,10.80
2022-09-06T23:36:53.231Z,10.80
2022-09-06T23:39:19.900Z,10.80
2022-09-06T23:41:46.562Z,10.80
2022-09-06T23:44:13.290Z,10.80
2022-09-06T23:46:40.029Z,10.70
2022-09-06T23:49:07.039Z,10.80
2022-09-06T23:51:33.984Z,10.80
2022-09-06T23:54:01.211Z,10.80
2022-09-06T23:56:27.981Z,10.70
2022-09-06T23:58:55.000Z,10.80
